Catàleg de serveis del Meteocat

Dades de l'estació automàtica Rellinars

?
?
Resum diari 22:30 TU
Dades diàries de l'estació meteorològica
Temperatura mitjana 8.0 °C
Temperatura màxima 9.4 °C 15:21 TU
Temperatura mínima 6.5 °C 22:52 TU
Humitat relativa mitjana 98%
Precipitació acumulada 5.3 mm
Ratxa màxima del vent (2 m) 17.3 km/h - 46º 19:07 TU
Irradiació solar global 2.0 MJ/m2

El tram horari està expressat en Temps Universal (TU). Cal sumar una hora en horari d'hivern i dues en horari d'estiu per passar a l'hora oficial.

Rellinars

Metadades estació meteorol´gica
Municipi Rellinars
Comarca Vallès Occidental
Altitud 421 m
Data alta 18.02.1998
Estat actual Operativa
Dades de període
Període
TU
TM
°C
TX
°C
TN
°C
HRM
%
PPT
mm
VVM (2 m)
km/h
DVM (2 m)
graus
VVX (2 m)
km/h
RS
W/m2
00:00 - 00:30 7.4 7.5 7.4 96 0.4 0.0 239 1.8 0
00:30 - 01:00 7.4 7.4 7.3 97 0.5 0.7 25 5.4 0
01:00 - 01:30 7.3 7.4 7.3 97 0.0 0.0 0 0.0 0
01:30 - 02:00 7.3 7.4 7.3 97 0.0 0.4 136 2.9 0
02:00 - 02:30 7.3 7.4 7.2 97 0.0 0.7 76 4.3 0
02:30 - 03:00 7.4 7.4 7.3 98 0.0 0.4 144 3.2 0
03:00 - 03:30 7.4 7.4 7.4 98 0.0 0.4 252 2.2 0
03:30 - 04:00 7.5 7.5 7.4 98 0.0 0.4 35 3.2 0
04:00 - 04:30 7.3 7.4 7.3 98 0.0 0.4 224 2.9 0
04:30 - 05:00 7.4 7.4 7.3 98 0.0 1.1 218 3.6 0
05:00 - 05:30 7.3 7.4 7.3 98 0.0 0.4 301 4.3 0
05:30 - 06:00 7.1 7.3 7.0 98 0.0 1.4 123 4.3 0
06:00 - 06:30 7.0 7.1 7.0 98 0.0 1.4 101 7.6 0
06:30 - 07:00 7.2 7.3 7.1 98 0.0 1.8 202 5.4 2
07:00 - 07:30 7.1 7.2 7.1 98 0.0 1.1 322 6.1 14
07:30 - 08:00 7.4 7.5 7.2 98 0.0 0.0 312 1.8 23
08:00 - 08:30 7.7 7.7 7.6 98 0.0 0.0 46 1.4 29
08:30 - 09:00 7.9 8.1 7.7 98 0.0 0.7 216 5.8 69
09:00 - 09:30 8.0 8.1 7.8 98 0.0 1.1 289 5.8 51
09:30 - 10:00 8.0 8.0 7.9 98 0.0 0.4 296 2.9 34
10:00 - 10:30 8.0 8.3 7.9 98 0.2 0.4 338 2.5 72
10:30 - 11:00 8.3 8.4 8.3 98 0.0 1.1 259 4.3 66
11:00 - 11:30 8.4 8.5 8.3 98 0.1 0.7 247 3.2 89
11:30 - 12:00 8.6 8.8 8.5 98 0.0 0.7 240 3.6 84
12:00 - 12:30 8.8 8.9 8.7 98 0.0 1.1 277 3.2 98
12:30 - 13:00 8.8 8.9 8.8 98 0.0 1.1 287 5.8 69
13:00 - 13:30 8.8 8.9 8.8 98 0.0 0.7 288 4.0 66
13:30 - 14:00 9.1 9.2 8.9 98 0.0 1.1 296 5.0 110
14:00 - 14:30 9.2 9.3 9.1 98 0.0 1.1 253 4.7 73
14:30 - 15:00 9.2 9.3 9.1 98 0.0 0.7 306 4.3 77
15:00 - 15:30 9.3 9.4 9.1 98 0.0 0.4 287 2.9 56
15:30 - 16:00 9.2 9.3 9.1 98 0.0 0.4 282 3.6 25
16:00 - 16:30 9.1 9.1 8.9 98 0.0 0.4 62 2.9 7
16:30 - 17:00 8.8 9.0 8.7 98 0.0 1.1 227 5.0 0
17:00 - 17:30 8.7 8.7 8.7 98 0.0 0.4 285 2.9 0
17:30 - 18:00 8.7 8.7 8.7 98 0.0 0.0 202 1.8 0
18:00 - 18:30 8.6 8.7 8.6 98 0.1 0.7 263 5.4 0
18:30 - 19:00 8.4 8.6 8.2 98 2.3 3.2 354 12.2 0
19:00 - 19:30 8.1 8.2 8.0 98 1.6 7.6 55 17.3 0
19:30 - 20:00 8.2 8.4 8.1 97 0.0 2.5 76 9.0 0
20:00 - 20:30 7.9 8.1 7.8 97 0.0 0.4 345 4.3 0
20:30 - 21:00 7.7 7.8 7.7 97 0.0 0.4 6 2.5 0
21:00 - 21:30 7.6 7.7 7.6 97 0.1 1.4 354 5.8 0
21:30 - 22:00 7.5 7.6 7.3 98 0.0 0.7 331 3.6 0
22:00 - 22:30 7.2 7.4 6.9 98 0.0 2.2 27 5.4 0
22:30 - 23:00 6.7 6.9 6.5 98 0.0 4.0 66 7.9 0

Les dades en taronja només han passat un control de qualitat automàtic. Resta pendent la seva validació definitiva.